sensor_id;sensor_type;location;lat;lon;timestamp;P1;durP1;ratioP1;P2;durP2;ratioP2
37777;SDS011;23615;51.506;7.678;2023-03-08T00:00:00;17.17;;;12.40;;
37777;SDS011;23615;51.506;7.678;2023-03-08T00:02:25;16.17;;;12.73;;
37777;SDS011;23615;51.506;7.678;2023-03-08T00:04:54;17.40;;;12.93;;
37777;SDS011;23615;51.506;7.678;2023-03-08T00:07:20;16.38;;;13.13;;
37777;SDS011;23615;51.506;7.678;2023-03-08T00:09:45;16.88;;;13.10;;
37777;SDS011;23615;51.506;7.678;2023-03-08T00:12:11;16.47;;;12.97;;
37777;SDS011;23615;51.506;7.678;2023-03-08T00:14:36;17.23;;;12.70;;
37777;SDS011;23615;51.506;7.678;2023-03-08T00:17:01;18.33;;;13.73;;
37777;SDS011;23615;51.506;7.678;2023-03-08T00:19:27;18.10;;;13.80;;
37777;SDS011;23615;51.506;7.678;2023-03-08T00:21:52;18.47;;;14.77;;
37777;SDS011;23615;51.506;7.678;2023-03-08T00:24:17;18.60;;;14.87;;
37777;SDS011;23615;51.506;7.678;2023-03-08T00:26:43;18.70;;;14.13;;
37777;SDS011;23615;51.506;7.678;2023-03-08T00:29:09;20.35;;;15.10;;
37777;SDS011;23615;51.506;7.678;2023-03-08T00:31:35;18.17;;;14.87;;
37777;SDS011;23615;51.506;7.678;2023-03-08T00:34:00;16.70;;;13.83;;
37777;SDS011;23615;51.506;7.678;2023-03-08T00:36:25;17.77;;;13.33;;
37777;SDS011;23615;51.506;7.678;2023-03-08T00:38:51;18.50;;;14.70;;
37777;SDS011;23615;51.506;7.678;2023-03-08T00:41:17;17.80;;;13.18;;
37777;SDS011;23615;51.506;7.678;2023-03-08T00:43:43;16.65;;;13.63;;
37777;SDS011;23615;51.506;7.678;2023-03-08T00:46:08;16.42;;;12.88;;
37777;SDS011;23615;51.506;7.678;2023-03-08T00:48:34;15.73;;;13.20;;
37777;SDS011;23615;51.506;7.678;2023-03-08T00:50:59;15.93;;;12.90;;
37777;SDS011;23615;51.506;7.678;2023-03-08T00:53:25;16.25;;;12.70;;
37777;SDS011;23615;51.506;7.678;2023-03-08T00:55:54;14.80;;;12.27;;
37777;SDS011;23615;51.506;7.678;2023-03-08T00:58:21;14.25;;;11.85;;
37777;SDS011;23615;51.506;7.678;2023-03-08T01:00:47;16.55;;;13.07;;
37777;SDS011;23615;51.506;7.678;2023-03-08T01:03:13;17.30;;;13.60;;
37777;SDS011;23615;51.506;7.678;2023-03-08T01:05:42;18.35;;;13.77;;
37777;SDS011;23615;51.506;7.678;2023-03-08T01:08:10;16.50;;;13.03;;
37777;SDS011;23615;51.506;7.678;2023-03-08T01:10:36;17.40;;;12.70;;
37777;SDS011;23615;51.506;7.678;2023-03-08T01:13:02;17.05;;;12.60;;
37777;SDS011;23615;51.506;7.678;2023-03-08T01:15:28;17.48;;;13.38;;
37777;SDS011;23615;51.506;7.678;2023-03-08T01:17:54;16.87;;;13.13;;
37777;SDS011;23615;51.506;7.678;2023-03-08T01:20:19;16.77;;;12.40;;
37777;SDS011;23615;51.506;7.678;2023-03-08T01:22:44;16.73;;;12.83;;
37777;SDS011;23615;51.506;7.678;2023-03-08T01:25:09;18.83;;;14.30;;
37777;SDS011;23615;51.506;7.678;2023-03-08T01:27:35;18.37;;;13.20;;
37777;SDS011;23615;51.506;7.678;2023-03-08T01:30:00;19.20;;;12.70;;
37777;SDS011;23615;51.506;7.678;2023-03-08T01:32:25;17.03;;;12.43;;
37777;SDS011;23615;51.506;7.678;2023-03-08T01:34:51;16.48;;;12.50;;
37777;SDS011;23615;51.506;7.678;2023-03-08T01:37:17;16.33;;;13.30;;
37777;SDS011;23615;51.506;7.678;2023-03-08T01:39:42;15.88;;;12.20;;
37777;SDS011;23615;51.506;7.678;2023-03-08T01:42:07;15.05;;;12.63;;
37777;SDS011;23615;51.506;7.678;2023-03-08T01:47:25;14.43;;;12.13;;
37777;SDS011;23615;51.506;7.678;2023-03-08T01:49:52;15.93;;;12.32;;
37777;SDS011;23615;51.506;7.678;2023-03-08T01:52:39;15.80;;;12.20;;
37777;SDS011;23615;51.506;7.678;2023-03-08T01:55:11;15.18;;;11.25;;
37777;SDS011;23615;51.506;7.678;2023-03-08T01:57:38;14.80;;;11.75;;
37777;SDS011;23615;51.506;7.678;2023-03-08T02:00:09;15.13;;;11.35;;
37777;SDS011;23615;51.506;7.678;2023-03-08T02:03:20;14.50;;;11.82;;
37777;SDS011;23615;51.506;7.678;2023-03-08T02:05:29;16.85;;;12.63;;
37777;SDS011;23615;51.506;7.678;2023-03-08T02:07:55;14.65;;;12.38;;
37777;SDS011;23615;51.506;7.678;2023-03-08T02:10:20;13.23;;;11.10;;
37777;SDS011;23615;51.506;7.678;2023-03-08T02:12:46;17.67;;;12.90;;
37777;SDS011;23615;51.506;7.678;2023-03-08T02:15:12;16.80;;;11.43;;
37777;SDS011;23615;51.506;7.678;2023-03-08T02:17:40;12.50;;;11.00;;
37777;SDS011;23615;51.506;7.678;2023-03-08T02:20:14;18.33;;;12.93;;
37777;SDS011;23615;51.506;7.678;2023-03-08T02:22:43;14.23;;;12.00;;
37777;SDS011;23615;51.506;7.678;2023-03-08T02:25:17;15.18;;;11.63;;
37777;SDS011;23615;51.506;7.678;2023-03-08T02:27:50;14.27;;;11.32;;
37777;SDS011;23615;51.506;7.678;2023-03-08T02:30:21;16.02;;;13.35;;
37777;SDS011;23615;51.506;7.678;2023-03-08T02:32:49;12.93;;;11.40;;
37777;SDS011;23615;51.506;7.678;2023-03-08T02:35:14;12.00;;;10.05;;
37777;SDS011;23615;51.506;7.678;2023-03-08T02:37:40;12.13;;;10.20;;
37777;SDS011;23615;51.506;7.678;2023-03-08T02:40:05;11.40;;;9.20;;
37777;SDS011;23615;51.506;7.678;2023-03-08T02:42:31;10.57;;;8.23;;
37777;SDS011;23615;51.506;7.678;2023-03-08T02:44:56;10.13;;;8.87;;
37777;SDS011;23615;51.506;7.678;2023-03-08T02:47:22;9.83;;;8.83;;
37777;SDS011;23615;51.506;7.678;2023-03-08T02:49:47;11.53;;;9.37;;
37777;SDS011;23615;51.506;7.678;2023-03-08T02:52:12;11.00;;;8.50;;
37777;SDS011;23615;51.506;7.678;2023-03-08T02:54:38;9.80;;;8.20;;
37777;SDS011;23615;51.506;7.678;2023-03-08T02:57:03;10.30;;;8.40;;
37777;SDS011;23615;51.506;7.678;2023-03-08T02:59:28;9.37;;;7.90;;
37777;SDS011;23615;51.506;7.678;2023-03-08T03:01:54;9.82;;;7.93;;
37777;SDS011;23615;51.506;7.678;2023-03-08T03:04:21;9.02;;;7.15;;
37777;SDS011;23615;51.506;7.678;2023-03-08T03:06:46;10.17;;;7.73;;
37777;SDS011;23615;51.506;7.678;2023-03-08T03:09:12;8.93;;;7.50;;
37777;SDS011;23615;51.506;7.678;2023-03-08T03:11:38;9.57;;;7.85;;
37777;SDS011;23615;51.506;7.678;2023-03-08T03:14:04;10.48;;;8.13;;
37777;SDS011;23615;51.506;7.678;2023-03-08T03:16:30;9.45;;;7.55;;
37777;SDS011;23615;51.506;7.678;2023-03-08T03:18:56;7.85;;;7.05;;
37777;SDS011;23615;51.506;7.678;2023-03-08T03:21:21;7.77;;;6.87;;
37777;SDS011;23615;51.506;7.678;2023-03-08T03:23:47;7.90;;;7.00;;
37777;SDS011;23615;51.506;7.678;2023-03-08T03:26:15;8.00;;;7.20;;
37777;SDS011;23615;51.506;7.678;2023-03-08T03:28:42;8.45;;;7.35;;
37777;SDS011;23615;51.506;7.678;2023-03-08T03:31:08;9.13;;;6.97;;
37777;SDS011;23615;51.506;7.678;2023-03-08T03:33:38;9.43;;;7.95;;
37777;SDS011;23615;51.506;7.678;2023-03-08T03:36:04;11.50;;;9.13;;
37777;SDS011;23615;51.506;7.678;2023-03-08T03:38:31;10.95;;;8.45;;
37777;SDS011;23615;51.506;7.678;2023-03-08T03:41:00;9.73;;;8.30;;
37777;SDS011;23615;51.506;7.678;2023-03-08T03:43:26;9.00;;;7.30;;
37777;SDS011;23615;51.506;7.678;2023-03-08T03:45:55;8.53;;;6.90;;
37777;SDS011;23615;51.506;7.678;2023-03-08T03:48:22;7.40;;;6.50;;
37777;SDS011;23615;51.506;7.678;2023-03-08T03:50:54;6.70;;;6.00;;
37777;SDS011;23615;51.506;7.678;2023-03-08T03:53:24;9.23;;;7.47;;
37777;SDS011;23615;51.506;7.678;2023-03-08T03:55:52;7.43;;;6.70;;
37777;SDS011;23615;51.506;7.678;2023-03-08T03:58:17;7.73;;;6.17;;
37777;SDS011;23615;51.506;7.678;2023-03-08T04:00:43;7.57;;;6.70;;
37777;SDS011;23615;51.506;7.678;2023-03-08T04:03:08;7.10;;;5.90;;
37777;SDS011;23615;51.506;7.678;2023-03-08T04:05:33;7.23;;;5.90;;
37777;SDS011;23615;51.506;7.678;2023-03-08T04:07:59;7.23;;;5.90;;
37777;SDS011;23615;51.506;7.678;2023-03-08T04:10:24;6.70;;;5.90;;
37777;SDS011;23615;51.506;7.678;2023-03-08T04:12:50;7.47;;;6.17;;
37777;SDS011;23615;51.506;7.678;2023-03-08T04:15:16;6.05;;;5.00;;
37777;SDS011;23615;51.506;7.678;2023-03-08T04:17:42;6.47;;;5.68;;
37777;SDS011;23615;51.506;7.678;2023-03-08T04:20:08;6.50;;;5.53;;
37777;SDS011;23615;51.506;7.678;2023-03-08T04:22:34;6.32;;;5.60;;
37777;SDS011;23615;51.506;7.678;2023-03-08T04:24:59;6.63;;;5.30;;
37777;SDS011;23615;51.506;7.678;2023-03-08T04:27:24;6.40;;;5.50;;
37777;SDS011;23615;51.506;7.678;2023-03-08T04:29:50;5.97;;;5.10;;
37777;SDS011;23615;51.506;7.678;2023-03-08T04:32:16;6.55;;;5.72;;
37777;SDS011;23615;51.506;7.678;2023-03-08T04:34:41;6.03;;;5.43;;
37777;SDS011;23615;51.506;7.678;2023-03-08T04:37:08;6.20;;;5.60;;
37777;SDS011;23615;51.506;7.678;2023-03-08T04:39:35;6.40;;;5.28;;
37777;SDS011;23615;51.506;7.678;2023-03-08T04:42:00;7.33;;;5.97;;
37777;SDS011;23615;51.506;7.678;2023-03-08T04:44:25;6.10;;;5.50;;
37777;SDS011;23615;51.506;7.678;2023-03-08T04:46:51;6.00;;;5.40;;
37777;SDS011;23615;51.506;7.678;2023-03-08T04:49:17;6.63;;;5.93;;
37777;SDS011;23615;51.506;7.678;2023-03-08T04:51:42;6.80;;;6.03;;
37777;SDS011;23615;51.506;7.678;2023-03-08T04:54:08;6.60;;;5.90;;
37777;SDS011;23615;51.506;7.678;2023-03-08T04:56:34;6.15;;;5.55;;
37777;SDS011;23615;51.506;7.678;2023-03-08T04:58:59;6.63;;;5.93;;
37777;SDS011;23615;51.506;7.678;2023-03-08T05:01:25;5.30;;;4.70;;
37777;SDS011;23615;51.506;7.678;2023-03-08T05:03:51;6.70;;;6.00;;
37777;SDS011;23615;51.506;7.678;2023-03-08T05:06:17;6.68;;;5.40;;
37777;SDS011;23615;51.506;7.678;2023-03-08T05:08:45;7.55;;;5.80;;
37777;SDS011;23615;51.506;7.678;2023-03-08T05:11:16;5.87;;;5.27;;
37777;SDS011;23615;51.506;7.678;2023-03-08T05:13:44;7.60;;;6.20;;
37777;SDS011;23615;51.506;7.678;2023-03-08T05:16:09;6.53;;;5.78;;
37777;SDS011;23615;51.506;7.678;2023-03-08T05:18:35;7.23;;;6.23;;
37777;SDS011;23615;51.506;7.678;2023-03-08T05:21:02;7.47;;;6.40;;
37777;SDS011;23615;51.506;7.678;2023-03-08T05:23:29;8.65;;;6.63;;
37777;SDS011;23615;51.506;7.678;2023-03-08T05:25:56;8.00;;;6.45;;
37777;SDS011;23615;51.506;7.678;2023-03-08T05:28:23;7.82;;;6.45;;
37777;SDS011;23615;51.506;7.678;2023-03-08T05:30:49;6.93;;;5.90;;
37777;SDS011;23615;51.506;7.678;2023-03-08T05:33:23;8.02;;;6.25;;
37777;SDS011;23615;51.506;7.678;2023-03-08T05:35:52;8.73;;;6.40;;
37777;SDS011;23615;51.506;7.678;2023-03-08T05:38:21;7.97;;;6.22;;
37777;SDS011;23615;51.506;7.678;2023-03-08T05:40:47;7.80;;;6.03;;
37777;SDS011;23615;51.506;7.678;2023-03-08T05:43:12;9.20;;;6.82;;
37777;SDS011;23615;51.506;7.678;2023-03-08T05:45:38;8.47;;;6.97;;
37777;SDS011;23615;51.506;7.678;2023-03-08T05:48:03;7.93;;;6.03;;
37777;SDS011;23615;51.506;7.678;2023-03-08T05:50:28;7.50;;;6.40;;
37777;SDS011;23615;51.506;7.678;2023-03-08T05:52:53;7.60;;;5.60;;
37777;SDS011;23615;51.506;7.678;2023-03-08T05:55:19;6.53;;;5.70;;
37777;SDS011;23615;51.506;7.678;2023-03-08T05:57:44;7.60;;;6.20;;
37777;SDS011;23615;51.506;7.678;2023-03-08T06:00:10;10.40;;;7.73;;
37777;SDS011;23615;51.506;7.678;2023-03-08T06:02:35;8.50;;;6.57;;
37777;SDS011;23615;51.506;7.678;2023-03-08T06:05:01;10.00;;;7.17;;
37777;SDS011;23615;51.506;7.678;2023-03-08T06:07:26;7.90;;;5.65;;
37777;SDS011;23615;51.506;7.678;2023-03-08T06:09:51;6.45;;;5.40;;
37777;SDS011;23615;51.506;7.678;2023-03-08T06:12:16;6.03;;;5.20;;
37777;SDS011;23615;51.506;7.678;2023-03-08T06:14:42;5.78;;;4.68;;
37777;SDS011;23615;51.506;7.678;2023-03-08T06:17:07;5.53;;;4.77;;
37777;SDS011;23615;51.506;7.678;2023-03-08T06:19:32;6.35;;;5.22;;
37777;SDS011;23615;51.506;7.678;2023-03-08T06:21:58;6.47;;;4.70;;
37777;SDS011;23615;51.506;7.678;2023-03-08T06:24:23;5.93;;;5.07;;
37777;SDS011;23615;51.506;7.678;2023-03-08T06:26:48;5.80;;;4.17;;
37777;SDS011;23615;51.506;7.678;2023-03-08T06:29:14;5.83;;;4.73;;
37777;SDS011;23615;51.506;7.678;2023-03-08T06:31:39;5.50;;;4.27;;
37777;SDS011;23615;51.506;7.678;2023-03-08T06:34:04;6.60;;;4.23;;
37777;SDS011;23615;51.506;7.678;2023-03-08T06:36:30;4.67;;;3.80;;
37777;SDS011;23615;51.506;7.678;2023-03-08T06:38:55;5.47;;;4.03;;
37777;SDS011;23615;51.506;7.678;2023-03-08T06:41:20;3.73;;;2.90;;
37777;SDS011;23615;51.506;7.678;2023-03-08T06:43:46;4.33;;;2.97;;
37777;SDS011;23615;51.506;7.678;2023-03-08T06:46:12;2.35;;;2.15;;
37777;SDS011;23615;51.506;7.678;2023-03-08T06:48:40;2.45;;;1.70;;
37777;SDS011;23615;51.506;7.678;2023-03-08T06:51:06;1.80;;;1.43;;
37777;SDS011;23615;51.506;7.678;2023-03-08T06:53:32;1.30;;;1.15;;
37777;SDS011;23615;51.506;7.678;2023-03-08T06:56:00;1.45;;;1.00;;
37777;SDS011;23615;51.506;7.678;2023-03-08T06:58:27;1.63;;;1.27;;
37777;SDS011;23615;51.506;7.678;2023-03-08T07:00:53;0.93;;;0.73;;
37777;SDS011;23615;51.506;7.678;2023-03-08T07:03:19;1.45;;;1.20;;
37777;SDS011;23615;51.506;7.678;2023-03-08T07:05:44;1.90;;;1.27;;
37777;SDS011;23615;51.506;7.678;2023-03-08T07:08:09;2.33;;;1.53;;
37777;SDS011;23615;51.506;7.678;2023-03-08T07:10:35;2.00;;;1.40;;
37777;SDS011;23615;51.506;7.678;2023-03-08T07:13:00;1.57;;;1.17;;
37777;SDS011;23615;51.506;7.678;2023-03-08T07:15:25;1.83;;;1.00;;
37777;SDS011;23615;51.506;7.678;2023-03-08T07:17:51;0.90;;;0.77;;
37777;SDS011;23615;51.506;7.678;2023-03-08T07:20:19;1.17;;;0.70;;
37777;SDS011;23615;51.506;7.678;2023-03-08T07:22:46;1.23;;;0.97;;
37777;SDS011;23615;51.506;7.678;2023-03-08T07:25:15;1.08;;;0.85;;
37777;SDS011;23615;51.506;7.678;2023-03-08T07:27:42;1.67;;;1.30;;
37777;SDS011;23615;51.506;7.678;2023-03-08T07:30:09;2.70;;;1.55;;
37777;SDS011;23615;51.506;7.678;2023-03-08T07:32:36;2.60;;;1.90;;
37777;SDS011;23615;51.506;7.678;2023-03-08T07:35:04;2.83;;;1.60;;
37777;SDS011;23615;51.506;7.678;2023-03-08T07:37:30;1.40;;;0.90;;
37777;SDS011;23615;51.506;7.678;2023-03-08T07:39:55;1.40;;;1.08;;
37777;SDS011;23615;51.506;7.678;2023-03-08T07:42:28;0.93;;;0.83;;
37777;SDS011;23615;51.506;7.678;2023-03-08T07:44:53;1.33;;;0.85;;
37777;SDS011;23615;51.506;7.678;2023-03-08T07:47:29;1.48;;;0.77;;
37777;SDS011;23615;51.506;7.678;2023-03-08T07:49:57;1.20;;;0.90;;
37777;SDS011;23615;51.506;7.678;2023-03-08T07:52:26;0.90;;;0.63;;
37777;SDS011;23615;51.506;7.678;2023-03-08T07:58:10;0.50;;;0.40;;
37777;SDS011;23615;51.506;7.678;2023-03-08T08:00:35;0.90;;;0.70;;
37777;SDS011;23615;51.506;7.678;2023-03-08T08:03:01;2.00;;;0.60;;
37777;SDS011;23615;51.506;7.678;2023-03-08T08:05:31;1.33;;;0.60;;
37777;SDS011;23615;51.506;7.678;2023-03-08T08:07:59;0.85;;;0.50;;
37777;SDS011;23615;51.506;7.678;2023-03-08T08:10:27;0.80;;;0.60;;
37777;SDS011;23615;51.506;7.678;2023-03-08T08:12:53;0.70;;;0.60;;
37777;SDS011;23615;51.506;7.678;2023-03-08T08:15:18;1.20;;;0.57;;
37777;SDS011;23615;51.506;7.678;2023-03-08T08:17:44;1.77;;;0.40;;
37777;SDS011;23615;51.506;7.678;2023-03-08T08:20:10;0.65;;;0.65;;
37777;SDS011;23615;51.506;7.678;2023-03-08T08:22:35;0.70;;;0.60;;
37777;SDS011;23615;51.506;7.678;2023-03-08T08:25:02;1.10;;;0.43;;
37777;SDS011;23615;51.506;7.678;2023-03-08T08:27:29;0.95;;;0.50;;
37777;SDS011;23615;51.506;7.678;2023-03-08T08:30:03;0.70;;;0.40;;
37777;SDS011;23615;51.506;7.678;2023-03-08T08:32:29;0.63;;;0.30;;
37777;SDS011;23615;51.506;7.678;2023-03-08T08:34:57;0.30;;;0.30;;
37777;SDS011;23615;51.506;7.678;2023-03-08T08:37:22;0.83;;;0.60;;
37777;SDS011;23615;51.506;7.678;2023-03-08T08:39:47;1.97;;;0.80;;
37777;SDS011;23615;51.506;7.678;2023-03-08T08:42:13;1.00;;;0.80;;
37777;SDS011;23615;51.506;7.678;2023-03-08T08:44:38;0.93;;;0.70;;
37777;SDS011;23615;51.506;7.678;2023-03-08T08:47:03;0.80;;;0.53;;
37777;SDS011;23615;51.506;7.678;2023-03-08T08:49:29;1.30;;;0.50;;
37777;SDS011;23615;51.506;7.678;2023-03-08T08:51:54;0.97;;;0.50;;
37777;SDS011;23615;51.506;7.678;2023-03-08T08:54:19;0.40;;;0.40;;
37777;SDS011;23615;51.506;7.678;2023-03-08T08:56:44;0.40;;;0.30;;
37777;SDS011;23615;51.506;7.678;2023-03-08T08:59:10;0.80;;;0.20;;
37777;SDS011;23615;51.506;7.678;2023-03-08T09:01:36;1.57;;;0.23;;
37777;SDS011;23615;51.506;7.678;2023-03-08T09:04:07;1.00;;;0.15;;
37777;SDS011;23615;51.506;7.678;2023-03-08T09:06:33;1.00;;;0.20;;
37777;SDS011;23615;51.506;7.678;2023-03-08T09:09:01;0.20;;;0.20;;
37777;SDS011;23615;51.506;7.678;2023-03-08T09:11:27;0.28;;;0.28;;
37777;SDS011;23615;51.506;7.678;2023-03-08T09:13:53;0.40;;;0.20;;
37777;SDS011;23615;51.506;7.678;2023-03-08T09:16:22;0.20;;;0.10;;
37777;SDS011;23615;51.506;7.678;2023-03-08T09:18:50;0.10;;;0.10;;
37777;SDS011;23615;51.506;7.678;2023-03-08T09:21:16;0.15;;;0.10;;
37777;SDS011;23615;51.506;7.678;2023-03-08T09:23:42;0.20;;;0.08;;
37777;SDS011;23615;51.506;7.678;2023-03-08T09:26:08;0.10;;;0.10;;
37777;SDS011;23615;51.506;7.678;2023-03-08T09:28:33;1.40;;;0.10;;
37777;SDS011;23615;51.506;7.678;2023-03-08T09:30:59;0.10;;;0.10;;
37777;SDS011;23615;51.506;7.678;2023-03-08T09:33:24;0.10;;;0.10;;
37777;SDS011;23615;51.506;7.678;2023-03-08T09:35:56;0.23;;;0.10;;
37777;SDS011;23615;51.506;7.678;2023-03-08T09:38:23;0.37;;;0.10;;
37777;SDS011;23615;51.506;7.678;2023-03-08T09:41:26;0.20;;;0.10;;
37777;SDS011;23615;51.506;7.678;2023-03-08T09:46:57;0.35;;;0.20;;
37777;SDS011;23615;51.506;7.678;2023-03-08T09:49:27;0.97;;;0.20;;
37777;SDS011;23615;51.506;7.678;2023-03-08T09:54:38;0.90;;;0.13;;
37777;SDS011;23615;51.506;7.678;2023-03-08T09:57:05;0.30;;;0.20;;
37777;SDS011;23615;51.506;7.678;2023-03-08T10:02:20;0.20;;;0.13;;
37777;SDS011;23615;51.506;7.678;2023-03-08T10:05:42;1.52;;;0.10;;
37777;SDS011;23615;51.506;7.678;2023-03-08T10:08:10;0.63;;;0.10;;
37777;SDS011;23615;51.506;7.678;2023-03-08T10:18:55;0.70;;;0.20;;
37777;SDS011;23615;51.506;7.678;2023-03-08T10:21:24;0.20;;;0.10;;
37777;SDS011;23615;51.506;7.678;2023-03-08T10:23:55;0.60;;;0.20;;
37777;SDS011;23615;51.506;7.678;2023-03-08T10:26:25;0.10;;;0.10;;
37777;SDS011;23615;51.506;7.678;2023-03-08T10:28:51;0.20;;;0.10;;
37777;SDS011;23615;51.506;7.678;2023-03-08T10:33:54;0.70;;;0.40;;
37777;SDS011;23615;51.506;7.678;2023-03-08T10:36:25;2.80;;;2.53;;
37777;SDS011;23615;51.506;7.678;2023-03-08T10:38:58;2.17;;;1.40;;
37777;SDS011;23615;51.506;7.678;2023-03-08T10:41:25;0.70;;;0.60;;
37777;SDS011;23615;51.506;7.678;2023-03-08T10:43:54;3.10;;;2.88;;
37777;SDS011;23615;51.506;7.678;2023-03-08T10:46:24;1.50;;;1.10;;
37777;SDS011;23615;51.506;7.678;2023-03-08T10:48:52;1.50;;;1.15;;
37777;SDS011;23615;51.506;7.678;2023-03-08T10:51:22;0.77;;;0.77;;
37777;SDS011;23615;51.506;7.678;2023-03-08T10:54:22;0.40;;;0.40;;
37777;SDS011;23615;51.506;7.678;2023-03-08T10:56:44;2.97;;;2.78;;
37777;SDS011;23615;51.506;7.678;2023-03-08T10:59:18;1.30;;;0.95;;
37777;SDS011;23615;51.506;7.678;2023-03-08T11:01:48;0.30;;;0.30;;
37777;SDS011;23615;51.506;7.678;2023-03-08T11:04:17;0.30;;;0.22;;
37777;SDS011;23615;51.506;7.678;2023-03-08T11:06:44;0.70;;;0.40;;
37777;SDS011;23615;51.506;7.678;2023-03-08T11:11:52;0.20;;;0.20;;
37777;SDS011;23615;51.506;7.678;2023-03-08T11:14:18;0.30;;;0.30;;
37777;SDS011;23615;51.506;7.678;2023-03-08T11:25:22;0.30;;;0.30;;
37777;SDS011;23615;51.506;7.678;2023-03-08T11:36:04;0.30;;;0.30;;
37777;SDS011;23615;51.506;7.678;2023-03-08T11:38:34;0.65;;;0.40;;
37777;SDS011;23615;51.506;7.678;2023-03-08T11:49:25;0.32;;;0.32;;
37777;SDS011;23615;51.506;7.678;2023-03-08T11:52:17;0.80;;;0.30;;
37777;SDS011;23615;51.506;7.678;2023-03-08T11:57:26;3.38;;;3.08;;
37777;SDS011;23615;51.506;7.678;2023-03-08T11:59:59;0.32;;;0.30;;
37777;SDS011;23615;51.506;7.678;2023-03-08T12:02:36;0.40;;;0.40;;
37777;SDS011;23615;51.506;7.678;2023-03-08T12:10:40;0.50;;;0.40;;
37777;SDS011;23615;51.506;7.678;2023-03-08T12:15:58;2.80;;;2.05;;
37777;SDS011;23615;51.506;7.678;2023-03-08T12:21:09;2.00;;;1.80;;
37777;SDS011;23615;51.506;7.678;2023-03-08T12:23:48;0.70;;;0.70;;
37777;SDS011;23615;51.506;7.678;2023-03-08T12:26:24;1.67;;;1.58;;
37777;SDS011;23615;51.506;7.678;2023-03-08T12:28:59;1.25;;;0.98;;
37777;SDS011;23615;51.506;7.678;2023-03-08T12:31:31;0.77;;;0.77;;
37777;SDS011;23615;51.506;7.678;2023-03-08T12:34:08;0.73;;;0.73;;
37777;SDS011;23615;51.506;7.678;2023-03-08T12:36:38;1.60;;;1.08;;
37777;SDS011;23615;51.506;7.678;2023-03-08T12:39:08;1.40;;;1.33;;
37777;SDS011;23615;51.506;7.678;2023-03-08T12:44:34;1.77;;;1.67;;
37777;SDS011;23615;51.506;7.678;2023-03-08T12:47:02;2.40;;;2.20;;
37777;SDS011;23615;51.506;7.678;2023-03-08T12:49:44;1.00;;;0.90;;
37777;SDS011;23615;51.506;7.678;2023-03-08T12:54:42;1.60;;;1.00;;
37777;SDS011;23615;51.506;7.678;2023-03-08T12:57:18;1.40;;;1.10;;
37777;SDS011;23615;51.506;7.678;2023-03-08T12:59:47;1.30;;;1.20;;
37777;SDS011;23615;51.506;7.678;2023-03-08T13:02:23;0.93;;;0.85;;
37777;SDS011;23615;51.506;7.678;2023-03-08T13:05:02;1.52;;;1.38;;
37777;SDS011;23615;51.506;7.678;2023-03-08T13:07:38;1.20;;;1.20;;
37777;SDS011;23615;51.506;7.678;2023-03-08T13:10:21;0.70;;;0.70;;
37777;SDS011;23615;51.506;7.678;2023-03-08T13:12:55;3.90;;;3.60;;
37777;SDS011;23615;51.506;7.678;2023-03-08T13:15:39;2.00;;;1.48;;
37777;SDS011;23615;51.506;7.678;2023-03-08T13:28:48;1.42;;;1.10;;
37777;SDS011;23615;51.506;7.678;2023-03-08T13:31:14;1.30;;;1.20;;
37777;SDS011;23615;51.506;7.678;2023-03-08T13:33:44;1.20;;;1.10;;
37777;SDS011;23615;51.506;7.678;2023-03-08T13:36:22;1.30;;;1.20;;
37777;SDS011;23615;51.506;7.678;2023-03-08T13:39:22;1.40;;;1.27;;
37777;SDS011;23615;51.506;7.678;2023-03-08T13:41:43;1.75;;;1.65;;
37777;SDS011;23615;51.506;7.678;2023-03-08T13:44:14;2.05;;;1.95;;
37777;SDS011;23615;51.506;7.678;2023-03-08T13:46:42;1.88;;;1.77;;
37777;SDS011;23615;51.506;7.678;2023-03-08T13:49:15;1.60;;;1.50;;
37777;SDS011;23615;51.506;7.678;2023-03-08T13:51:42;1.52;;;1.42;;
37777;SDS011;23615;51.506;7.678;2023-03-08T13:54:16;1.60;;;1.50;;
37777;SDS011;23615;51.506;7.678;2023-03-08T13:56:53;1.70;;;1.60;;
37777;SDS011;23615;51.506;7.678;2023-03-08T13:59:19;1.30;;;1.20;;
37777;SDS011;23615;51.506;7.678;2023-03-08T14:01:46;1.80;;;1.30;;
37777;SDS011;23615;51.506;7.678;2023-03-08T14:04:16;1.73;;;1.63;;
37777;SDS011;23615;51.506;7.678;2023-03-08T14:06:51;2.00;;;1.80;;
37777;SDS011;23615;51.506;7.678;2023-03-08T14:09:18;1.80;;;1.70;;
37777;SDS011;23615;51.506;7.678;2023-03-08T14:11:44;1.50;;;1.40;;
37777;SDS011;23615;51.506;7.678;2023-03-08T14:14:51;2.00;;;1.90;;
37777;SDS011;23615;51.506;7.678;2023-03-08T14:17:15;1.80;;;1.70;;
37777;SDS011;23615;51.506;7.678;2023-03-08T14:19:44;2.10;;;1.90;;
37777;SDS011;23615;51.506;7.678;2023-03-08T14:24:41;1.60;;;1.50;;
37777;SDS011;23615;51.506;7.678;2023-03-08T14:29:38;6.17;;;5.33;;
37777;SDS011;23615;51.506;7.678;2023-03-08T14:37:04;2.03;;;1.92;;
37777;SDS011;23615;51.506;7.678;2023-03-08T14:39:36;1.98;;;1.80;;
37777;SDS011;23615;51.506;7.678;2023-03-08T14:42:47;2.60;;;2.40;;
37777;SDS011;23615;51.506;7.678;2023-03-08T14:45:16;2.65;;;2.45;;
37777;SDS011;23615;51.506;7.678;2023-03-08T14:47:51;2.35;;;2.15;;
37777;SDS011;23615;51.506;7.678;2023-03-08T14:50:21;2.80;;;2.22;;
37777;SDS011;23615;51.506;7.678;2023-03-08T14:52:50;3.17;;;2.97;;
37777;SDS011;23615;51.506;7.678;2023-03-08T14:55:18;2.63;;;2.42;;
37777;SDS011;23615;51.506;7.678;2023-03-08T14:57:58;2.58;;;2.17;;
37777;SDS011;23615;51.506;7.678;2023-03-08T15:00:26;2.33;;;2.13;;
37777;SDS011;23615;51.506;7.678;2023-03-08T15:02:53;2.05;;;1.95;;
37777;SDS011;23615;51.506;7.678;2023-03-08T15:05:20;2.30;;;2.20;;
37777;SDS011;23615;51.506;7.678;2023-03-08T15:07:48;2.27;;;2.17;;
37777;SDS011;23615;51.506;7.678;2023-03-08T15:10:16;2.33;;;2.22;;
37777;SDS011;23615;51.506;7.678;2023-03-08T15:12:43;2.78;;;2.45;;
37777;SDS011;23615;51.506;7.678;2023-03-08T15:15:10;2.60;;;2.40;;
37777;SDS011;23615;51.506;7.678;2023-03-08T15:17:37;2.85;;;2.65;;
37777;SDS011;23615;51.506;7.678;2023-03-08T15:20:02;2.63;;;2.43;;
37777;SDS011;23615;51.506;7.678;2023-03-08T15:22:30;3.05;;;2.85;;
37777;SDS011;23615;51.506;7.678;2023-03-08T15:24:56;2.95;;;2.75;;
37777;SDS011;23615;51.506;7.678;2023-03-08T15:27:22;2.47;;;2.28;;
37777;SDS011;23615;51.506;7.678;2023-03-08T15:29:47;2.85;;;2.65;;
37777;SDS011;23615;51.506;7.678;2023-03-08T15:32:13;3.05;;;2.65;;
37777;SDS011;23615;51.506;7.678;2023-03-08T15:34:38;2.97;;;2.77;;
37777;SDS011;23615;51.506;7.678;2023-03-08T15:37:04;2.70;;;2.50;;
37777;SDS011;23615;51.506;7.678;2023-03-08T15:39:31;2.45;;;2.25;;
37777;SDS011;23615;51.506;7.678;2023-03-08T15:41:56;2.47;;;2.27;;
37777;SDS011;23615;51.506;7.678;2023-03-08T15:44:22;3.03;;;2.73;;
37777;SDS011;23615;51.506;7.678;2023-03-08T15:46:47;2.50;;;2.30;;
37777;SDS011;23615;51.506;7.678;2023-03-08T15:49:12;3.13;;;2.50;;
37777;SDS011;23615;51.506;7.678;2023-03-08T15:51:37;2.77;;;2.57;;
37777;SDS011;23615;51.506;7.678;2023-03-08T15:54:03;2.10;;;2.00;;
37777;SDS011;23615;51.506;7.678;2023-03-08T15:56:30;2.58;;;2.45;;
37777;SDS011;23615;51.506;7.678;2023-03-08T15:58:55;2.53;;;2.33;;
37777;SDS011;23615;51.506;7.678;2023-03-08T16:01:21;2.70;;;2.50;;
37777;SDS011;23615;51.506;7.678;2023-03-08T16:03:52;2.55;;;2.35;;
37777;SDS011;23615;51.506;7.678;2023-03-08T16:06:18;2.42;;;2.30;;
37777;SDS011;23615;51.506;7.678;2023-03-08T16:08:44;2.45;;;2.25;;
37777;SDS011;23615;51.506;7.678;2023-03-08T16:11:10;2.77;;;2.53;;
37777;SDS011;23615;51.506;7.678;2023-03-08T16:13:37;2.38;;;2.17;;
37777;SDS011;23615;51.506;7.678;2023-03-08T16:16:03;2.67;;;2.47;;
37777;SDS011;23615;51.506;7.678;2023-03-08T16:18:30;2.70;;;2.25;;
37777;SDS011;23615;51.506;7.678;2023-03-08T16:20:56;2.65;;;2.45;;